| Date | Time | Temp. (oF) | Dew Point (oF) | Rel. Hum. (%) | Press. (in.) | Wind Dir. | Wind Speed (mph) | Hourly Rainfall (in.) |
|
|---|---|---|---|---|---|---|---|---|---|
| 1 | 06/17 | 00:00 | 58 | 53 | 85 | 30.30 | SSE | 3 | 0.00 |
| 2 | 06/16 | 23:00 | 60 | 53 | 78 | 30.29 | SE | 5 | 0.00 |
| 3 | 06/16 | 22:00 | 63 | 54 | 75 | 30.29 | ESE | 7 | 0.00 |
| 4 | 06/16 | 21:00 | 66 | 57 | 73 | 30.26 | SE | 5 | 0.00 |
| 5 | 06/16 | 20:00 | 69 | 59 | 73 | 30.24 | S | 6 | 0.00 |
| 6 | 06/16 | 19:00 | 71 | 59 | 66 | 30.21 | E | 7 | 0.00 |
| 7 | 06/16 | 18:00 | 72 | 59 | 66 | 30.20 | SE | 4 | 0.00 |
| 8 | 06/16 | 17:00 | 73 | 60 | 65 | 30.20 | SSE | 4 | 0.00 |
| 9 | 06/16 | 16:00 | 74 | 60 | 64 | 30.20 | E | 6 | 0.00 |
| 10 | 06/16 | 15:00 | 74 | 60 | 64 | 30.22 | ESE | 2 | 0.00 |
| 11 | 06/16 | 14:00 | 74 | 60 | 62 | 30.23 | E | 10 | 0.00 |
| 12 | 06/16 | 13:00 | 74 | 60 | 63 | 30.22 | NE | 6 | 0.00 |
| 13 | 06/16 | 12:00 | 72 | 59 | 66 | 30.23 | NE | 9 | 0.00 |
| 14 | 06/16 | 11:00 | 69 | 57 | 66 | 30.21 | E | 4 | 0.00 |
| 15 | 06/16 | 10:00 | 68 | 56 | 67 | 30.20 | NE | 11 | 0.00 |
| 16 | 06/16 | 09:00 | 66 | 53 | 65 | 30.20 | NE | 7 | 0.00 |
| 17 | 06/16 | 08:00 | 63 | 52 | 69 | 30.18 | NNE | 7 | 0.00 |
| 18 | 06/16 | 07:00 | 60 | 50 | 72 | 30.16 | NNE | 2 | 0.00 |
| 19 | 06/16 | 06:00 | 60 | 48 | 66 | 30.14 | N | 1 | 0.00 |
| 20 | 06/16 | 05:00 | 62 | 48 | 61 | 30.13 | N | 1 | 0.00 |
| 21 | 06/16 | 04:00 | 63 | 48 | 59 | 30.12 | NE | 3 | 0.00 |
| 22 | 06/16 | 03:00 | 65 | 53 | 67 | 30.11 | N | 2 | 0.00 |
| 23 | 06/16 | 02:00 | 66 | 55 | 68 | 30.10 | ENE | 3 | 0.00 |
| 24 | 06/16 | 01:00 | 66 | 59 | 81 | 30.09 | NNE | 2 | 0.00 |